Time;durP1;ratioP1;P1;durP2;ratioP2;P2;SDS_P1;SDS_P2;PMS_P1;PMS_P2;Temp;Humidity;BMP_temperature;BMP_pressure;BME280_temperature;BME280_humidity;BME280_pressure;Samples;Min_cycle;Max_cycle;Signal;HPM_P1;HPM_P2
2023/06/18 00:02:05;;;;;;;4.32;3.92;;;15.40;99.90;;;;;;5079957;28;20122;-77
2023/06/18 00:04:31;;;;;;;4.05;3.45;;;15.40;99.90;;;;;;5089964;28;20040;-76
2023/06/18 00:06:57;;;;;;;3.53;3.15;;;15.30;99.90;;;;;;5089284;28;20032;-76
2023/06/18 00:09:23;;;;;;;3.30;2.92;;;15.30;99.90;;;;;;5072429;28;20509;-76
2023/06/18 00:11:50;;;;;;;3.13;2.75;;;15.30;99.90;;;;;;5076092;28;20050;-77
2023/06/18 00:14:16;;;;;;;3.38;2.67;;;15.20;99.90;;;;;;5098062;28;20031;-76
2023/06/18 00:16:42;;;;;;;3.47;2.92;;;15.20;99.90;;;;;;5075267;28;20031;-76
2023/06/18 00:19:08;;;;;;;4.57;4.10;;;15.20;99.90;;;;;;5092126;28;20039;-79
2023/06/18 00:21:33;;;;;;;3.72;3.28;;;15.10;99.90;;;;;;5093338;28;20040;-79
2023/06/18 00:23:59;;;;;;;3.50;3.20;;;15.00;99.90;;;;;;5092917;28;20086;-79
2023/06/18 00:26:25;;;;;;;3.30;3.00;;;15.00;99.90;;;;;;5093150;28;20044;-79
2023/06/18 00:28:51;;;;;;;;;;;14.90;99.90;;;;;;5093247;28;20079;-79
2023/06/18 00:31:17;;;;;;;3.50;3.20;;;14.90;99.90;;;;;;5107519;28;19967;-79
2023/06/18 00:33:44;;;;;;;3.35;3.05;;;14.90;99.90;;;;;;5074674;28;20502;-79
2023/06/18 00:36:10;;;;;;;4.93;4.18;;;14.90;99.90;;;;;;5078031;28;20054;-79
2023/06/18 00:38:37;;;;;;;5.03;4.10;;;15.00;99.90;;;;;;5087701;28;20051;-79
2023/06/18 00:41:03;;;;;;;4.10;3.70;;;15.00;99.90;;;;;;5072537;28;20443;-79
2023/06/18 00:43:28;;;;;;;4.40;4.00;;;15.00;99.90;;;;;;5098083;28;20066;-79
2023/06/18 00:45:59;;;;;;;4.40;4.00;;;15.00;99.90;;;;;;5112293;28;20107;-79
2023/06/18 00:48:31;;;;;;;4.70;4.10;;;15.00;99.90;;;;;;5113013;28;20058;-79
2023/06/18 00:50:58;;;;;;;5.22;4.45;;;15.10;99.90;;;;;;5099505;28;20058;-79
2023/06/18 00:53:28;;;;;;;4.90;4.30;;;15.10;99.90;;;;;;5074546;28;20047;-79
2023/06/18 00:55:57;;;;;;;5.80;4.88;;;15.00;99.90;;;;;;5075739;28;20102;-79
2023/06/18 00:58:23;;;;;;;4.80;4.30;;;15.10;99.90;;;;;;5075579;28;20075;-79
2023/06/18 01:00:53;;;;;;;6.88;5.72;;;15.10;99.90;;;;;;5072224;28;20111;-79
2023/06/18 01:03:20;;;;;;;5.60;4.80;;;15.10;99.90;;;;;;5055545;28;20045;-79
2023/06/18 01:05:52;;;;;;;5.45;4.95;;;15.20;99.90;;;;;;5087425;28;20508;-79
2023/06/18 01:08:23;;;;;;;5.70;4.60;;;15.10;99.90;;;;;;5091463;28;20522;-79
2023/06/18 01:10:57;;;;;;;4.05;3.65;;;15.10;99.90;;;;;;5067506;28;20143;-79
2023/06/18 01:13:25;;;;;;;5.50;3.85;;;15.10;99.90;;;;;;5077980;28;20111;-79
2023/06/18 01:15:50;;;;;;;4.40;3.70;;;15.00;99.90;;;;;;5098144;28;20496;-79
2023/06/18 01:18:17;;;;;;;4.25;3.65;;;15.10;99.90;;;;;;5086199;28;20048;-79
2023/06/18 01:20:45;;;;;;;3.92;3.50;;;15.00;99.90;;;;;;5103542;28;20036;-79
2023/06/18 01:23:35;;;;;;;4.93;4.00;;;15.00;99.90;;;;;;5111153;28;20159;-79
2023/06/18 01:26:02;;;;;;;4.35;3.75;;;15.00;99.90;;;;;;5096137;28;20048;-79
2023/06/18 01:28:29;;;;;;;3.65;3.28;;;15.00;99.90;;;;;;5063639;28;20048;-79
2023/06/18 01:30:55;;;;;;;3.90;3.50;;;15.00;99.90;;;;;;5062802;28;20484;-79
2023/06/18 01:33:21;;;;;;;4.13;3.72;;;15.00;99.90;;;;;;5058284;28;20046;-79
2023/06/18 01:35:47;;;;;;;;;;;15.00;99.90;;;;;;5081597;28;20040;-79
2023/06/18 01:38:31;;;;;;;3.97;3.25;;;15.00;99.90;;;;;;5091704;28;19920;-79
2023/06/18 01:41:06;;;;;;;3.67;3.13;;;14.90;99.90;;;;;;5095949;28;20050;-79
2023/06/18 01:44:01;;;;;;;4.15;3.58;;;14.90;99.90;;;;;;5085056;28;20051;-79
2023/06/18 01:46:29;;;;;;;3.85;3.17;;;14.80;99.90;;;;;;5075241;28;20106;-79
2023/06/18 01:48:58;;;;;;;3.40;2.92;;;14.80;99.90;;;;;;5108018;28;20406;-79
2023/06/18 01:51:25;;;;;;;4.03;3.20;;;14.70;99.90;;;;;;5098249;28;20060;-79
2023/06/18 01:53:54;;;;;;;2.90;2.60;;;14.70;99.90;;;;;;5080192;28;20839;-79
2023/06/18 01:56:21;;;;;;;2.80;2.60;;;14.70;99.90;;;;;;5103072;28;20044;-79
2023/06/18 01:58:46;;;;;;;5.00;3.30;;;14.60;99.90;;;;;;5104660;28;20070;-79
2023/06/18 02:01:12;;;;;;;2.90;2.60;;;14.60;99.90;;;;;;5100484;28;20081;-79
2023/06/18 02:03:39;;;;;;;3.20;2.70;;;14.50;99.90;;;;;;5111275;28;20071;-79
2023/06/18 02:06:06;;;;;;;4.13;3.20;;;14.50;99.90;;;;;;5094357;28;20371;-79
2023/06/18 02:08:32;;;;;;;3.20;2.90;;;14.50;99.90;;;;;;5093350;28;20128;-79
2023/06/18 02:10:58;;;;;;;3.30;2.85;;;14.50;99.90;;;;;;5093723;28;20130;-79
2023/06/18 02:13:23;;;;;;;;;;;14.40;99.90;;;;;;5086172;28;20040;-80
2023/06/18 02:15:49;;;;;;;3.22;2.72;;;14.40;99.90;;;;;;5092561;28;19916;-79
2023/06/18 02:18:15;;;;;;;3.15;2.80;;;14.40;99.90;;;;;;5103873;28;20126;-79
2023/06/18 02:20:41;;;;;;;;;;;14.40;99.90;;;;;;5111411;28;20039;-79
2023/06/18 02:23:08;;;;;;;2.83;2.50;;;14.40;99.90;;;;;;5124863;27;19974;-79
2023/06/18 02:25:34;;;;;;;2.60;2.38;;;14.40;99.90;;;;;;5110290;28;20054;-79
2023/06/18 02:28:04;;;;;;;2.33;2.13;;;14.30;99.90;;;;;;5092138;28;20043;-79
2023/06/18 02:30:30;;;;;;;2.65;2.42;;;14.30;99.90;;;;;;5098877;28;20490;-79
2023/06/18 02:33:06;;;;;;;2.55;2.35;;;14.20;99.90;;;;;;5140972;27;20065;-79
2023/06/18 02:35:32;;;;;;;2.80;2.50;;;14.20;99.90;;;;;;5124939;27;20042;-79
2023/06/18 02:37:58;;;;;;;2.75;2.38;;;14.10;99.90;;;;;;5105222;28;20040;-79
2023/06/18 02:40:23;;;;;;;2.70;2.45;;;14.10;99.90;;;;;;5108189;28;20058;-79
2023/06/18 02:42:50;;;;;;;2.80;2.30;;;14.00;99.90;;;;;;5129944;27;20122;-79
2023/06/18 02:45:17;;;;;;;2.90;2.42;;;14.00;99.90;;;;;;5092114;28;20048;-79
2023/06/18 02:47:44;;;;;;;2.85;2.55;;;14.00;99.90;;;;;;5093228;28;20157;-80
2023/06/18 02:50:11;;;;;;;2.55;2.20;;;14.00;99.90;;;;;;5110467;28;20482;-79
2023/06/18 02:52:37;;;;;;;4.72;2.80;;;14.00;99.90;;;;;;5105562;27;20109;-80
2023/06/18 02:55:04;;;;;;;3.13;2.78;;;13.90;99.90;;;;;;5111179;27;20043;-79
2023/06/18 02:57:30;;;;;;;2.88;2.58;;;13.90;99.90;;;;;;5113664;27;20047;-80
2023/06/18 02:59:55;;;;;;;2.95;2.55;;;13.90;99.90;;;;;;5144219;27;20032;-79
2023/06/18 03:02:22;;;;;;;3.10;2.30;;;13.90;99.90;;;;;;5133847;27;20450;-79
2023/06/18 03:04:47;;;;;;;3.00;2.70;;;13.80;99.90;;;;;;5147938;27;20075;-79
2023/06/18 03:07:13;;;;;;;2.65;2.42;;;13.90;99.90;;;;;;5096330;27;20121;-79
2023/06/18 03:09:39;;;;;;;3.63;2.58;;;13.80;99.90;;;;;;5088508;27;20046;-79
2023/06/18 03:12:05;;;;;;;4.78;4.15;;;13.90;99.90;;;;;;5143351;27;20078;-79
2023/06/18 03:14:31;;;;;;;6.05;4.93;;;13.90;99.90;;;;;;5113555;28;20389;-79
2023/06/18 03:16:56;;;;;;;9.07;6.80;;;13.90;99.90;;;;;;5146409;27;20050;-79
2023/06/18 03:19:23;;;;;;;6.15;5.55;;;14.00;99.90;;;;;;5079722;27;20046;-79
2023/06/18 03:21:48;;;;;;;6.35;5.15;;;14.00;99.90;;;;;;5079445;28;20074;-79
2023/06/18 03:24:14;;;;;;;5.28;4.20;;;14.10;99.90;;;;;;5108719;27;20077;-79
2023/06/18 03:26:41;;;;;;;5.93;4.90;;;14.10;99.90;;;;;;5079388;27;20047;-79
2023/06/18 03:29:07;;;;;;;5.85;4.85;;;14.10;99.90;;;;;;5111461;28;20035;-79
2023/06/18 03:31:33;;;;;;;7.07;5.80;;;14.10;99.90;;;;;;5092450;28;20123;-78
2023/06/18 03:34:02;;;;;;;7.88;6.90;;;14.10;99.90;;;;;;5094389;28;20063;-78
2023/06/18 03:36:29;;;;;;;6.75;5.60;;;14.10;99.90;;;;;;5080267;28;20039;-78
2023/06/18 03:38:55;;;;;;;6.63;5.07;;;14.20;99.90;;;;;;5108525;28;20494;-79
2023/06/18 03:41:21;;;;;;;;;;;14.10;99.90;;;;;;5112598;28;20079;-78
2023/06/18 03:43:47;;;;;;;5.97;5.22;;;14.10;99.90;;;;;;5141028;27;19927;-78
2023/06/18 03:46:13;;;;;;;5.40;4.78;;;14.20;99.90;;;;;;5092184;27;20039;-79
2023/06/18 03:48:39;;;;;;;5.45;4.75;;;14.20;99.90;;;;;;5100217;27;20047;-79
2023/06/18 03:51:05;;;;;;;6.20;5.15;;;14.20;99.90;;;;;;5087995;28;20714;-78
2023/06/18 03:53:36;;;;;;;7.25;6.10;;;14.20;99.90;;;;;;5092997;28;20048;-79
2023/06/18 03:56:03;;;;;;;5.38;4.63;;;14.20;99.90;;;;;;5093480;28;20098;-79
2023/06/18 03:58:29;;;;;;;5.50;4.78;;;14.30;99.90;;;;;;5073976;28;20043;-79
2023/06/18 04:00:55;;;;;;;4.38;3.65;;;14.30;99.90;;;;;;5086204;28;20044;-79
2023/06/18 04:03:22;;;;;;;;;;;14.30;99.90;;;;;;5093577;28;20051;-79
2023/06/18 04:05:48;;;;;;;6.35;4.10;;;14.30;99.90;;;;;;5091788;28;19916;-78
2023/06/18 04:08:14;;;;;;;6.25;4.60;;;14.30;99.90;;;;;;5076084;28;20052;-79
2023/06/18 04:10:41;;;;;;;4.63;4.00;;;14.30;99.90;;;;;;5092779;28;20051;-79
2023/06/18 04:13:06;;;;;;;5.35;4.60;;;14.30;99.90;;;;;;5092861;28;20058;-79
2023/06/18 04:15:32;;;;;;;5.30;4.15;;;14.30;99.90;;;;;;5091192;28;20437;-79
2023/06/18 04:17:58;;;;;;;5.00;4.13;;;14.40;99.90;;;;;;5091624;28;20028;-79
2023/06/18 04:20:24;;;;;;;5.25;4.20;;;14.30;99.90;;;;;;5092570;28;20043;-79
2023/06/18 04:22:50;;;;;;;4.78;3.95;;;14.40;99.90;;;;;;5091573;28;20051;-79
2023/06/18 04:25:15;;;;;;;;;;;14.50;99.90;;;;;;5093319;28;20383;-79
2023/06/18 04:27:42;;;;;;;4.63;3.95;;;14.50;99.90;;;;;;5075007;28;19920;-79
2023/06/18 04:30:08;;;;;;;4.70;4.10;;;14.60;99.90;;;;;;5075217;28;20154;-79
2023/06/18 04:32:34;;;;;;;3.95;3.55;;;14.60;99.90;;;;;;5057422;28;20123;-78
2023/06/18 04:35:00;;;;;;;4.40;3.65;;;14.70;99.90;;;;;;5092577;28;20174;-78
2023/06/18 04:37:26;;;;;;;3.75;3.30;;;14.80;99.90;;;;;;5075736;28;20126;-78
2023/06/18 04:39:51;;;;;;;3.88;3.30;;;14.80;99.90;;;;;;5072715;28;20032;-78
2023/06/18 04:42:17;;;;;;;3.65;3.28;;;14.90;99.90;;;;;;5083006;28;20048;-78
2023/06/18 04:44:43;;;;;;;3.58;3.10;;;15.00;99.90;;;;;;5092084;28;20131;-78
2023/06/18 04:47:08;;;;;;;;;;;15.00;99.90;;;;;;5074030;28;20075;-78
2023/06/18 04:49:34;;;;;;;3.17;2.88;;;15.10;99.90;;;;;;5088361;28;20024;-78
2023/06/18 04:52:00;;;;;;;4.60;3.15;;;15.30;99.90;;;;;;5091629;28;20052;-78
2023/06/18 04:54:26;;;;;;;3.60;3.20;;;15.20;99.90;;;;;;5074933;28;20036;-78
2023/06/18 04:56:52;;;;;;;4.90;4.00;;;15.40;99.90;;;;;;5081020;28;20044;-78
2023/06/18 04:59:19;;;;;;;3.42;2.95;;;15.40;99.90;;;;;;5091960;28;20040;-78
2023/06/18 05:01:44;;;;;;;3.80;3.40;;;15.50;99.90;;;;;;5092081;28;20098;-78
2023/06/18 05:04:10;;;;;;;4.47;3.75;;;15.50;99.90;;;;;;5091639;28;20507;-78
2023/06/18 05:06:36;;;;;;;4.10;3.70;;;15.50;99.90;;;;;;5083596;28;20044;-78
2023/06/18 05:09:01;;;;;;;5.47;4.45;;;15.50;99.90;;;;;;5076016;28;20071;-78
2023/06/18 05:11:28;;;;;;;3.90;3.47;;;15.50;99.90;;;;;;5086809;28;20101;-78
2023/06/18 05:13:53;;;;;;;3.67;3.33;;;15.50;99.90;;;;;;5074534;28;20036;-78
2023/06/18 05:16:19;;;;;;;2.95;2.63;;;15.60;99.90;;;;;;5062308;28;20546;-78
2023/06/18 05:18:45;;;;;;;2.78;2.40;;;15.60;99.90;;;;;;5090994;28;20122;-78
2023/06/18 05:21:10;;;;;;;3.70;2.90;;;15.70;99.90;;;;;;5074936;28;20082;-78
2023/06/18 05:23:36;;;;;;;4.18;3.60;;;15.70;99.90;;;;;;5073526;28;20039;-78
2023/06/18 05:26:02;;;;;;;3.30;3.00;;;15.80;99.90;;;;;;5054267;28;20507;-78
2023/06/18 05:28:27;;;;;;;3.10;2.53;;;15.80;99.90;;;;;;5071215;28;20101;-78
2023/06/18 05:30:53;;;;;;;2.55;2.28;;;15.90;99.90;;;;;;5088518;28;20044;-78
2023/06/18 05:33:19;;;;;;;3.38;2.92;;;15.90;99.90;;;;;;5073999;28;20044;-78
2023/06/18 05:35:45;;;;;;;3.17;2.67;;;16.00;99.90;;;;;;5091537;28;20072;-78
2023/06/18 05:38:11;;;;;;;2.75;2.50;;;16.00;99.90;;;;;;5074629;28;20036;-78
2023/06/18 05:40:37;;;;;;;2.17;1.98;;;16.10;99.90;;;;;;5086929;28;20544;-78
2023/06/18 05:43:02;;;;;;;2.63;2.42;;;16.20;99.90;;;;;;5071100;28;20048;-78
2023/06/18 05:45:28;;;;;;;2.90;2.30;;;16.30;99.90;;;;;;5084161;28;20059;-78
2023/06/18 05:47:53;;;;;;;2.67;2.15;;;16.40;99.90;;;;;;5053332;28;20040;-78
2023/06/18 05:50:19;;;;;;;3.13;2.78;;;16.40;99.90;;;;;;5057082;28;20052;-78
2023/06/18 05:52:45;;;;;;;3.13;2.75;;;16.60;99.90;;;;;;5128632;27;20051;-78
2023/06/18 05:55:11;;;;;;;3.80;3.22;;;16.60;99.90;;;;;;5135117;27;20062;-78
2023/06/18 05:57:36;;;;;;;3.20;2.88;;;16.60;99.90;;;;;;5110970;27;20390;-79
2023/06/18 06:00:02;;;;;;;2.88;2.63;;;16.80;99.90;;;;;;5115661;27;20100;-78
2023/06/18 06:02:28;;;;;;;;;;;16.90;99.90;;;;;;5131603;27;20115;-78
2023/06/18 06:04:54;;;;;;;5.28;4.65;;;16.90;99.90;;;;;;5113182;27;19919;-76
2023/06/18 06:07:20;;;;;;;4.22;3.60;;;17.00;99.90;;;;;;5097662;27;20554;-76
2023/06/18 06:09:46;;;;;;;4.35;3.90;;;17.20;99.90;;;;;;5097033;27;20027;-76
2023/06/18 06:12:12;;;;;;;;;;;17.30;99.90;;;;;;5100343;27;20057;-76
2023/06/18 06:14:38;;;;;;;4.50;3.88;;;17.50;99.90;;;;;;5116851;27;20011;-77
2023/06/18 06:17:03;;;;;;;;;;;17.60;99.90;;;;;;5115258;27;20083;-76
2023/06/18 06:19:29;;;;;;;4.20;3.80;;;17.70;99.90;;;;;;5112564;27;19916;-77
2023/06/18 06:21:55;;;;;;;3.85;3.33;;;17.80;99.90;;;;;;5095352;27;20042;-77
2023/06/18 06:24:20;;;;;;;3.55;3.17;;;17.80;99.90;;;;;;5091899;27;20118;-76
2023/06/18 06:26:46;;;;;;;3.30;3.00;;;17.80;99.90;;;;;;5140898;27;20513;-76
2023/06/18 06:29:12;;;;;;;3.25;2.95;;;18.00;99.90;;;;;;5142273;27;20039;-77
2023/06/18 06:31:37;;;;;;;;;;;18.00;99.90;;;;;;5095695;27;20043;-76
2023/06/18 06:34:03;;;;;;;3.85;3.30;;;18.20;99.90;;;;;;5117344;27;19998;-76
2023/06/18 06:36:29;;;;;;;3.50;3.10;;;18.30;99.90;;;;;;5073382;27;20038;-75
2023/06/18 06:38:54;;;;;;;;;;;18.40;99.90;;;;;;5149166;27;20043;-76
2023/06/18 06:41:20;;;;;;;3.15;2.70;;;18.50;99.90;;;;;;5095633;27;20434;-76
2023/06/18 06:43:45;;;;;;;;;;;18.60;36.00;;;;;;5110307;27;20047;-76
2023/06/18 06:46:11;;;;;;;3.85;3.17;;;18.60;1.00;;;;;;5084037;28;19919;-75
2023/06/18 06:48:38;;;;;;;3.30;3.00;;;18.80;1.00;;;;;;5105346;27;20046;-76
2023/06/18 06:51:04;;;;;;;4.35;3.95;;;18.90;99.90;;;;;;5109649;27;20055;-75
2023/06/18 06:53:29;;;;;;;;;;;18.90;1.00;;;;;;5138629;27;20122;-75
2023/06/18 06:55:55;;;;;;;4.30;3.90;;;19.00;1.00;;;;;;5113347;27;19919;-76
2023/06/18 06:58:20;;;;;;;;;;;19.10;99.90;;;;;;5118789;27;20063;-75
2023/06/18 07:00:46;;;;;;;4.75;4.25;;;19.20;99.90;;;;;;5109471;28;19920;-75
2023/06/18 07:03:12;;;;;;;;;;;19.30;99.90;;;;;;5105007;27;20042;-75
2023/06/18 07:05:37;;;;;;;4.78;4.10;;;19.40;99.90;;;;;;5078204;27;19987;-76
2023/06/18 07:08:05;;;;;;;;;;;19.60;99.90;;;;;;5116925;27;20053;-76
2023/06/18 07:10:31;;;;;;;3.80;3.40;;;19.60;99.90;;;;;;5108468;27;19926;-76
2023/06/18 07:12:57;;;;;;;5.18;4.15;;;19.80;99.90;;;;;;5108979;27;20480;-75
2023/06/18 07:15:22;;;;;;;;;;;19.80;54.40;;;;;;5078098;27;20047;-76
2023/06/18 07:17:48;;;;;;;3.75;3.10;;;20.00;99.90;;;;;;5090243;28;19915;-75
2023/06/18 07:20:13;;;;;;;4.22;3.67;;;20.20;1.00;;;;;;5110181;27;20543;-76
2023/06/18 07:22:39;;;;;;;3.58;3.20;;;20.30;99.90;;;;;;5094291;28;20118;-75
2023/06/18 07:25:06;;;;;;;4.32;3.65;;;20.30;99.90;;;;;;5119665;27;20465;-76
2023/06/18 07:27:33;;;;;;;4.20;3.80;;;20.30;99.90;;;;;;5093352;28;20035;-75
2023/06/18 07:29:58;;;;;;;4.13;3.35;;;20.40;99.90;;;;;;5111846;27;20046;-76
2023/06/18 07:32:24;;;;;;;3.35;2.83;;;20.50;99.90;;;;;;5111706;28;20035;-75
2023/06/18 07:34:50;;;;;;;3.97;3.42;;;20.70;99.90;;;;;;5136693;27;20040;-75
2023/06/18 07:37:15;;;;;;;;;;;20.80;99.90;;;;;;5137876;27;20501;-77
2023/06/18 07:39:41;;;;;;;4.10;3.70;;;21.10;99.90;;;;;;5107125;28;20366;-75
2023/06/18 07:42:07;;;;;;;3.20;2.90;;;21.20;28.10;;;;;;5093777;28;20398;-79
2023/06/18 07:44:32;;;;;;;3.13;2.83;;;21.30;1.00;;;;;;5089965;28;20203;-78
2023/06/18 07:46:58;;;;;;;3.65;3.00;;;21.50;1.00;;;;;;5112199;28;20046;-78
2023/06/18 07:49:24;;;;;;;3.67;3.05;;;21.70;99.90;;;;;;5092361;27;20039;-78
2023/06/18 07:51:50;;;;;;;3.28;2.78;;;21.90;99.90;;;;;;5094965;28;20052;-78
2023/06/18 07:54:16;;;;;;;3.20;2.90;;;22.10;99.90;;;;;;5066133;28;20104;-78
2023/06/18 07:56:41;;;;;;;3.10;2.80;;;22.30;99.90;;;;;;5080974;28;20040;-78
2023/06/18 07:59:07;;;;;;;4.25;2.97;;;22.30;99.90;;;;;;5062647;28;20048;-78
2023/06/18 08:01:33;;;;;;;3.33;2.90;;;22.30;1.00;;;;;;5079124;28;20047;-78
2023/06/18 08:03:59;;;;;;;2.97;2.78;;;22.30;50.90;;;;;;5080033;28;20078;-76
2023/06/18 08:06:25;;;;;;;3.55;2.90;;;22.40;1.00;;;;;;5067302;28;20040;-79
2023/06/18 08:08:51;;;;;;;3.45;3.15;;;22.50;18.00;;;;;;5068077;28;20043;-81
2023/06/18 08:11:17;;;;;;;3.80;3.40;;;22.70;1.00;;;;;;5082064;28;20139;-78
2023/06/18 08:13:44;;;;;;;3.40;3.10;;;22.80;99.90;;;;;;5062860;28;20139;-79
2023/06/18 08:16:10;;;;;;;4.25;3.03;;;23.00;1.00;;;;;;5073759;28;21571;-78
2023/06/18 08:18:36;;;;;;;3.08;2.78;;;23.20;42.70;;;;;;5067573;28;20040;-77
2023/06/18 08:21:02;;;;;;;3.38;2.47;;;23.60;1.00;;;;;;5076201;28;20129;-78
2023/06/18 08:23:28;;;;;;;3.00;2.70;;;23.90;99.90;;;;;;5082659;28;20040;-77
2023/06/18 08:25:54;;;;;;;3.30;3.00;;;24.20;99.90;;;;;;5081971;28;20509;-78
2023/06/18 08:28:20;;;;;;;3.60;3.22;;;24.30;99.90;;;;;;5083079;28;20048;-78
2023/06/18 08:30:46;;;;;;;3.38;3.00;;;24.50;69.00;;;;;;5078453;28;20453;-77
2023/06/18 08:33:12;;;;;;;2.88;2.53;;;24.70;99.90;;;;;;5074699;28;20051;-78
2023/06/18 08:35:37;;;;;;;3.35;2.70;;;24.90;99.80;;;;;;5077922;28;20036;-77
2023/06/18 08:38:04;;;;;;;3.20;2.70;;;24.90;62.90;;;;;;5079078;28;20063;-74
2023/06/18 08:40:36;;;;;;;3.60;2.83;;;25.20;99.90;;;;;;5070714;28;20528;-74
2023/06/18 08:43:04;;;;;;;3.28;2.97;;;25.50;12.20;;;;;;5057985;28;20387;-74
2023/06/18 08:45:30;;;;;;;3.78;3.33;;;25.80;4.00;;;;;;5064538;28;20108;-74
2023/06/18 08:47:58;;;;;;;3.30;3.00;;;25.90;99.90;;;;;;5062512;28;20050;-74
2023/06/18 08:50:27;;;;;;;3.17;2.88;;;25.80;99.90;;;;;;5080871;28;20105;-75
2023/06/18 08:52:59;;;;;;;3.45;2.80;;;26.00;1.00;;;;;;5111706;27;20051;-74
2023/06/18 08:55:27;;;;;;;3.83;3.53;;;26.30;1.00;;;;;;5092929;27;20126;-74
2023/06/18 08:57:59;;;;;;;3.88;3.25;;;26.30;99.90;;;;;;5109498;27;20440;-74
2023/06/18 09:00:25;;;;;;;3.30;2.95;;;26.30;99.90;;;;;;5109244;27;20393;-74
2023/06/18 09:02:53;;;;;;;2.72;2.53;;;26.40;99.90;;;;;;5107643;27;20046;-74
2023/06/18 09:05:19;;;;;;;3.20;2.90;;;26.60;99.90;;;;;;5088892;27;20042;-74
2023/06/18 09:07:47;;;;;;;3.40;3.10;;;26.70;99.90;;;;;;5104308;27;20042;-74
2023/06/18 09:10:14;;;;;;;3.00;2.70;;;26.70;99.90;;;;;;5109210;27;20039;-74
2023/06/18 09:12:40;;;;;;;3.15;2.85;;;26.80;99.90;;;;;;5090584;27;20043;-74
2023/06/18 09:15:06;;;;;;;3.50;3.10;;;27.00;99.90;;;;;;5105768;27;20047;-74
2023/06/18 09:17:35;;;;;;;5.95;3.60;;;27.20;99.90;;;;;;5114830;27;20091;-74
2023/06/18 09:20:02;;;;;;;3.55;3.08;;;27.30;85.60;;;;;;5134765;27;20043;-74
2023/06/18 09:22:27;;;;;;;3.38;2.85;;;27.50;99.90;;;;;;5110719;27;20041;-74
2023/06/18 09:24:57;;;;;;;3.97;3.03;;;27.50;78.40;;;;;;5133893;27;20043;-74
2023/06/18 09:27:33;;;;;;;3.30;3.00;;;27.60;19.30;;;;;;5095236;27;20089;-75
2023/06/18 09:30:00;;;;;;;3.25;2.95;;;27.70;1.00;;;;;;5108493;27;20046;-74
2023/06/18 09:32:26;;;;;;;3.35;3.05;;;27.70;54.50;;;;;;5099773;27;20073;-74
2023/06/18 09:34:52;;;;;;;2.95;2.65;;;27.60;1.00;;;;;;5134203;27;20066;-73
2023/06/18 09:37:19;;;;;;;2.92;2.40;;;27.80;1.00;;;;;;5114039;27;20093;-74
2023/06/18 09:39:45;;;;;;;2.60;2.40;;;28.00;1.00;;;;;;5088584;27;20134;-74
2023/06/18 09:42:13;;;;;;;2.70;2.50;;;28.10;1.00;;;;;;5092828;27;20122;-74
2023/06/18 09:44:39;;;;;;;2.50;2.30;;;28.10;1.00;;;;;;5104744;27;20066;-74
2023/06/18 09:47:12;;;;;;;4.53;2.92;;;28.30;1.00;;;;;;5097550;27;20079;-75
2023/06/18 09:49:40;;;;;;;2.83;2.58;;;28.30;1.00;;;;;;5102721;27;20035;-74
2023/06/18 09:52:07;;;;;;;2.67;2.47;;;28.50;1.00;;;;;;5071186;28;20772;-75
2023/06/18 09:54:43;;;;;;;3.25;2.55;;;28.70;1.00;;;;;;5088076;28;20122;-83
2023/06/18 09:57:10;;;;;;;;;;;28.90;1.00;;;;;;5063561;28;20128;-84
2023/06/18 09:59:36;;;;;;;2.70;2.50;;;28.80;1.00;;;;;;5098331;28;19916;-83
2023/06/18 10:02:03;;;;;;;3.00;2.80;;;29.00;1.00;;;;;;5072802;28;20044;-83
2023/06/18 10:04:29;;;;;;;3.00;2.70;;;29.20;1.00;;;;;;5062148;28;20075;-83
2023/06/18 10:07:02;;;;;;;3.10;2.80;;;29.30;1.00;;;;;;5075244;28;20072;-83
2023/06/18 10:09:35;;;;;;;3.45;2.90;;;29.30;1.00;;;;;;5082991;28;20113;-84
2023/06/18 10:12:02;;;;;;;3.03;2.60;;;29.10;99.90;;;;;;5062102;28;20032;-84
2023/06/18 10:14:28;;;;;;;2.90;2.60;;;29.00;99.90;;;;;;5069923;28;20036;-84
2023/06/18 10:17:04;;;;;;;2.40;2.20;;;29.00;99.90;;;;;;5086537;28;20033;-84
2023/06/18 10:19:32;;;;;;;;;;;29.10;99.90;;;;;;5072043;28;20036;-84
2023/06/18 10:22:05;;;;;;;2.63;2.42;;;29.10;99.90;;;;;;5070808;28;19916;-84
2023/06/18 10:24:45;;;;;;;2.35;2.15;;;29.30;99.90;;;;;;5071006;28;20048;-85
2023/06/18 10:27:12;;;;;;;2.72;2.33;;;29.60;99.90;;;;;;5069207;28;20142;-85
2023/06/18 10:29:38;;;;;;;2.53;2.25;;;29.60;99.90;;;;;;5078340;28;20044;-84
2023/06/18 10:32:05;;;;;;;2.80;2.50;;;29.60;99.90;;;;;;5070996;28;20106;-84
2023/06/18 10:34:32;;;;;;;3.72;2.78;;;29.70;99.90;;;;;;5070167;28;20040;-83
2023/06/18 10:37:00;;;;;;;2.78;2.40;;;29.70;99.90;;;;;;5074865;28;20029;-84
2023/06/18 10:39:27;;;;;;;2.30;2.10;;;29.90;99.90;;;;;;5084002;28;20072;-84
2023/06/18 10:41:54;;;;;;;2.25;2.00;;;30.00;99.90;;;;;;5050625;28;20118;-84
2023/06/18 10:44:33;;;;;;;3.00;2.47;;;29.90;99.90;;;;;;5086502;28;20434;-83
2023/06/18 10:47:26;;;;;;;2.83;2.53;;;29.90;99.90;;;;;;5047001;28;20106;-83
2023/06/18 10:50:07;;;;;;;2.50;2.20;;;30.10;99.90;;;;;;5064530;28;20036;-84
2023/06/18 10:52:34;;;;;;;3.25;2.60;;;30.10;99.90;;;;;;5084941;28;20406;-81
2023/06/18 10:55:18;;;;;;;2.17;2.00;;;30.30;99.90;;;;;;5079539;28;20119;-82
2023/06/18 10:57:51;;;;;;;3.00;2.20;;;30.40;99.90;;;;;;5089762;28;20356;-74
2023/06/18 11:00:31;;;;;;;2.60;2.40;;;30.60;99.90;;;;;;5087294;28;20039;-74
2023/06/18 11:03:05;;;;;;;3.55;2.60;;;30.80;99.90;;;;;;5081242;28;20047;-74
2023/06/18 11:05:34;;;;;;;3.13;2.47;;;30.80;99.90;;;;;;5075768;28;20146;-74
2023/06/18 11:08:05;;;;;;;3.65;2.40;;;31.00;99.90;;;;;;5084440;28;20052;-74
2023/06/18 11:10:41;;;;;;;2.50;2.20;;;31.20;99.90;;;;;;5082058;28;20127;-74
2023/06/18 11:13:08;;;;;;;2.78;2.30;;;31.20;99.90;;;;;;5077688;28;20484;-74
2023/06/18 11:15:35;;;;;;;2.40;2.20;;;31.10;99.90;;;;;;5075656;28;20036;-74
2023/06/18 11:18:02;;;;;;;2.50;2.30;;;31.20;99.90;;;;;;5086351;28;20048;-73
2023/06/18 11:20:35;;;;;;;2.53;2.33;;;31.20;99.90;;;;;;5070420;28;20048;-74
2023/06/18 11:23:05;;;;;;;2.58;2.38;;;31.20;99.90;;;;;;5082275;28;20044;-74
2023/06/18 11:25:30;;;;;;;2.70;2.50;;;31.20;99.90;;;;;;5085039;28;20052;-74
2023/06/18 11:28:02;;;;;;;2.97;2.60;;;31.20;99.90;;;;;;5049641;28;20056;-74
2023/06/18 11:30:33;;;;;;;2.60;2.40;;;31.00;99.90;;;;;;5064227;28;20099;-74
2023/06/18 11:33:00;;;;;;;2.40;2.20;;;30.70;99.90;;;;;;5076352;28;20043;-75
2023/06/18 11:35:29;;;;;;;2.97;2.50;;;30.40;99.90;;;;;;5083108;28;20044;-74
2023/06/18 11:37:55;;;;;;;2.65;2.33;;;30.30;99.90;;;;;;5077803;28;20035;-74
2023/06/18 11:40:20;;;;;;;2.20;2.00;;;30.10;99.90;;;;;;5087596;28;20521;-75
2023/06/18 11:42:48;;;;;;;2.38;2.17;;;29.90;99.90;;;;;;5081223;28;20105;-75
2023/06/18 11:45:14;;;;;;;3.30;2.45;;;29.80;99.90;;;;;;5085498;28;20480;-75
2023/06/18 11:47:46;;;;;;;2.58;2.30;;;29.70;99.90;;;;;;5076177;28;20048;-75
2023/06/18 11:50:11;;;;;;;2.47;2.15;;;29.70;99.90;;;;;;5083748;28;20048;-75
2023/06/18 11:52:37;;;;;;;3.30;2.47;;;29.60;99.90;;;;;;5088729;28;20593;-75
2023/06/18 11:55:05;;;;;;;2.80;2.60;;;29.50;99.90;;;;;;5080183;28;20044;-75
2023/06/18 11:57:31;;;;;;;2.35;2.15;;;29.50;99.90;;;;;;5074487;28;20046;-74
2023/06/18 11:59:57;;;;;;;2.30;2.10;;;29.50;99.90;;;;;;5076522;28;20401;-74
2023/06/18 12:02:25;;;;;;;2.63;2.33;;;29.60;99.90;;;;;;5061536;28;20104;-74
2023/06/18 12:04:51;;;;;;;2.33;2.13;;;29.50;99.90;;;;;;5072099;28;20048;-75
2023/06/18 12:07:24;;;;;;;2.33;2.13;;;29.60;99.90;;;;;;5091299;28;20043;-75
2023/06/18 12:09:52;;;;;;;2.50;2.30;;;29.60;99.90;;;;;;5085197;28;20550;-77
2023/06/18 12:12:35;;;;;;;2.30;2.10;;;29.70;99.90;;;;;;5074966;28;20125;-74
2023/06/18 12:15:13;;;;;;;2.50;2.30;;;29.70;99.90;;;;;;5089531;28;20036;-75
2023/06/18 12:17:54;;;;;;;2.80;2.60;;;29.80;99.90;;;;;;5090826;28;20077;-76
2023/06/18 12:20:23;;;;;;;2.78;2.13;;;29.70;99.90;;;;;;5076379;28;20048;-75
2023/06/18 12:22:49;;;;;;;2.42;2.22;;;29.70;99.90;;;;;;5074993;28;20054;-75
2023/06/18 12:25:16;;;;;;;2.60;2.40;;;29.80;99.90;;;;;;5092829;28;20495;-76
2023/06/18 12:27:43;;;;;;;2.67;2.47;;;29.80;99.90;;;;;;5092469;28;20040;-75
2023/06/18 12:30:10;;;;;;;3.80;2.55;;;29.90;99.90;;;;;;5091408;28;20503;-74
2023/06/18 12:32:36;;;;;;;3.13;2.83;;;30.00;99.90;;;;;;5094199;28;20072;-74
2023/06/18 12:35:10;;;;;;;3.28;2.75;;;29.90;99.90;;;;;;5092687;28;20125;-75
2023/06/18 12:37:41;;;;;;;3.50;3.00;;;29.90;99.90;;;;;;5093001;28;20044;-74
2023/06/18 12:40:19;;;;;;;3.55;2.90;;;29.70;99.90;;;;;;5092691;28;20044;-75
2023/06/18 12:42:49;;;;;;;3.38;2.97;;;29.50;99.90;;;;;;5074056;28;20040;-74
2023/06/18 12:45:16;;;;;;;2.92;2.55;;;29.30;99.90;;;;;;5089379;28;20040;-75
2023/06/18 12:47:46;;;;;;;3.60;2.67;;;29.20;99.90;;;;;;5086861;28;20052;-75
2023/06/18 12:50:12;;;;;;;3.05;2.40;;;29.20;99.90;;;;;;5091215;28;20040;-75
2023/06/18 12:52:40;;;;;;;2.50;2.30;;;29.10;99.90;;;;;;5091994;28;20494;-76
2023/06/18 12:55:16;;;;;;;2.50;2.30;;;29.10;99.90;;;;;;5098793;28;20097;-77